createdAt,value
2018-08-12T00:00:29.068Z,62.10
2018-08-12T00:02:59.411Z,62.30
2018-08-12T00:05:28.238Z,62.20
2018-08-12T00:07:56.866Z,62.40
2018-08-12T00:10:26.174Z,62.40
2018-08-12T00:12:54.778Z,62.50
2018-08-12T00:15:23.805Z,62.30
2018-08-12T00:17:52.824Z,62.30
2018-08-12T00:20:23.095Z,62.40
2018-08-12T00:22:52.194Z,62.40
2018-08-12T00:25:22.770Z,62.40
2018-08-12T00:27:51.825Z,62.40
2018-08-12T00:30:21.176Z,62.40
2018-08-12T00:32:50.210Z,62.50
2018-08-12T00:35:19.859Z,62.60
2018-08-12T00:37:48.904Z,62.60
2018-08-12T00:40:18.361Z,62.60
2018-08-12T00:42:47.710Z,62.60
2018-08-12T00:45:18.247Z,62.70
2018-08-12T00:47:47.664Z,62.80
2018-08-12T00:50:17.462Z,63.00
2018-08-12T00:52:46.579Z,63.20
2018-08-12T00:55:17.008Z,63.20
2018-08-12T00:57:46.848Z,63.00
2018-08-12T01:00:17.852Z,63.00
2018-08-12T01:02:46.971Z,63.10
2018-08-12T01:05:17.152Z,63.10
2018-08-12T01:07:47.381Z,63.10
2018-08-12T01:10:16.947Z,63.20
2018-08-12T01:12:46.044Z,63.20
2018-08-12T01:15:19.267Z,63.20
2018-08-12T01:17:47.865Z,63.10
2018-08-12T01:20:22.010Z,63.10
2018-08-12T01:22:50.587Z,63.20
2018-08-12T01:25:19.411Z,63.10
2018-08-12T01:27:48.008Z,63.20
2018-08-12T01:30:18.415Z,63.10
2018-08-12T01:32:47.424Z,63.20
2018-08-12T01:35:16.358Z,63.20
2018-08-12T01:37:45.828Z,63.20
2018-08-12T01:40:15.342Z,63.20
2018-08-12T01:42:44.427Z,63.30
2018-08-12T01:45:15.684Z,63.30
2018-08-12T01:47:44.195Z,63.30
2018-08-12T01:50:14.348Z,63.30
2018-08-12T01:52:42.905Z,63.40
2018-08-12T01:55:11.439Z,63.40
2018-08-12T01:57:39.980Z,63.30
2018-08-12T02:00:17.063Z,63.40
2018-08-12T02:02:45.739Z,63.40
2018-08-12T02:05:14.385Z,63.40
2018-08-12T02:07:43.060Z,63.40
2018-08-12T02:10:11.757Z,63.40
2018-08-12T02:12:40.354Z,63.40
2018-08-12T02:15:10.001Z,63.30
2018-08-12T02:17:38.658Z,63.40
2018-08-12T02:20:07.905Z,63.30
2018-08-12T02:22:36.864Z,63.30
2018-08-12T02:25:05.445Z,63.30
2018-08-12T02:27:34.009Z,63.20
2018-08-12T02:30:02.589Z,63.30
2018-08-12T02:32:31.187Z,63.40
2018-08-12T02:34:59.735Z,63.30
2018-08-12T02:37:28.263Z,63.30
2018-08-12T02:39:56.731Z,63.30
2018-08-12T02:42:25.240Z,63.40
2018-08-12T02:44:53.849Z,63.40
2018-08-12T02:47:22.382Z,63.40
2018-08-12T02:49:50.942Z,63.40
2018-08-12T02:52:19.491Z,63.40
2018-08-12T02:54:48.000Z,63.50
2018-08-12T02:57:16.571Z,63.60
2018-08-12T02:59:45.163Z,63.60
2018-08-12T03:02:13.698Z,63.70
2018-08-12T03:04:42.197Z,63.60
2018-08-12T03:07:10.800Z,63.80
2018-08-12T03:09:39.319Z,63.80
2018-08-12T03:12:07.784Z,63.90
2018-08-12T03:14:36.291Z,63.80
2018-08-12T03:17:04.806Z,63.80
2018-08-12T03:19:33.306Z,63.70
2018-08-12T03:22:01.795Z,63.70
2018-08-12T03:24:30.318Z,63.80
2018-08-12T03:26:58.816Z,63.80
2018-08-12T03:29:27.320Z,63.80
2018-08-12T03:31:55.832Z,63.80
2018-08-12T03:34:24.570Z,63.60
2018-08-12T03:36:53.042Z,63.80
2018-08-12T03:39:21.571Z,63.60
2018-08-12T03:41:50.058Z,64.40
2018-08-12T03:44:18.628Z,63.70
2018-08-12T03:46:47.087Z,63.70
2018-08-12T03:49:15.643Z,63.70
2018-08-12T03:51:44.229Z,63.80
2018-08-12T03:54:12.885Z,63.70
2018-08-12T03:56:41.377Z,63.80
2018-08-12T03:59:09.895Z,63.80
2018-08-12T04:01:38.411Z,63.90
2018-08-12T04:04:06.890Z,63.90
2018-08-12T04:06:35.462Z,63.90
2018-08-12T04:09:05.806Z,64.00
2018-08-12T04:11:34.372Z,64.00
2018-08-12T04:14:02.964Z,64.00
2018-08-12T04:16:31.528Z,64.00
2018-08-12T04:19:00.106Z,64.00
2018-08-12T04:21:28.546Z,64.00
2018-08-12T04:23:57.034Z,64.00
2018-08-12T04:26:25.574Z,64.00
2018-08-12T04:28:54.087Z,64.00
2018-08-12T04:31:22.682Z,64.10
2018-08-12T04:33:52.149Z,64.00
2018-08-12T04:36:20.716Z,64.00
2018-08-12T04:38:49.358Z,64.00
2018-08-12T04:41:17.885Z,64.00
2018-08-12T04:43:46.349Z,64.00
2018-08-12T04:46:14.857Z,63.90
2018-08-12T04:48:43.385Z,63.80
2018-08-12T04:51:11.968Z,63.70
2018-08-12T04:53:40.440Z,63.70
2018-08-12T04:56:09.028Z,63.70
2018-08-12T04:58:37.632Z,63.60
2018-08-12T05:01:06.200Z,63.60
2018-08-12T05:03:34.713Z,63.60
2018-08-12T05:06:03.207Z,63.60
2018-08-12T05:08:31.757Z,63.60
2018-08-12T05:11:03.876Z,63.60
2018-08-12T05:13:32.382Z,63.60
2018-08-12T05:16:00.886Z,64.50
2018-08-12T05:18:29.414Z,63.60
2018-08-12T05:20:57.948Z,63.60
2018-08-12T05:23:26.549Z,63.50
2018-08-12T05:25:55.012Z,63.50
2018-08-12T05:28:23.587Z,63.60
2018-08-12T05:30:52.047Z,63.70
2018-08-12T05:33:20.731Z,63.60
2018-08-12T05:35:49.236Z,63.60
2018-08-12T05:38:17.813Z,63.50
2018-08-12T05:40:46.575Z,63.50
2018-08-12T05:43:15.308Z,63.40
2018-08-12T05:45:43.832Z,63.20
2018-08-12T05:48:12.448Z,63.20
2018-08-12T05:50:40.990Z,63.00
2018-08-12T05:53:09.511Z,63.20
2018-08-12T05:55:38.378Z,63.20
2018-08-12T05:58:07.290Z,63.20
2018-08-12T06:00:36.280Z,63.10
2018-08-12T06:03:04.933Z,63.00
2018-08-12T06:05:33.664Z,62.90
2018-08-12T06:08:02.427Z,62.90
2018-08-12T06:10:30.946Z,62.90
2018-08-12T06:12:59.481Z,62.70
2018-08-12T06:15:28.256Z,62.70
2018-08-12T06:17:57.078Z,62.50
2018-08-12T06:20:25.867Z,62.50
2018-08-12T06:22:54.514Z,62.50
2018-08-12T06:25:23.349Z,62.50
2018-08-12T06:27:51.868Z,62.50
2018-08-12T06:30:20.812Z,62.40
2018-08-12T06:32:49.790Z,62.40
2018-08-12T06:35:18.551Z,62.50
2018-08-12T06:37:47.090Z,62.50
2018-08-12T06:40:15.693Z,62.40
2018-08-12T06:42:45.437Z,62.20
2018-08-12T06:45:15.318Z,62.10
2018-08-12T06:47:45.066Z,62.20
2018-08-12T06:50:13.634Z,62.20
2018-08-12T06:52:42.399Z,62.20
2018-08-12T06:55:12.403Z,62.20
2018-08-12T06:57:41.858Z,62.10
2018-08-12T07:00:13.639Z,62.10
2018-08-12T07:02:42.914Z,62.00
2018-08-12T07:05:12.183Z,62.00
2018-08-12T07:07:40.812Z,62.00
2018-08-12T07:10:12.621Z,61.90
2018-08-12T07:12:41.644Z,61.90
2018-08-12T07:15:12.873Z,61.80
2018-08-12T07:17:42.320Z,61.70
2018-08-12T07:20:12.117Z,61.60
2018-08-12T07:22:40.976Z,61.70
2018-08-12T07:25:10.935Z,61.60
2018-08-12T07:27:41.130Z,61.60
2018-08-12T07:30:13.104Z,61.50
2018-08-12T07:32:42.334Z,61.50
2018-08-12T07:35:11.734Z,61.40
2018-08-12T07:37:41.086Z,61.40
2018-08-12T07:40:13.195Z,61.30
2018-08-12T07:42:42.135Z,61.30
2018-08-12T07:45:14.190Z,61.30
2018-08-12T07:47:43.531Z,61.40
2018-08-12T07:50:12.458Z,61.20
2018-08-12T07:52:43.072Z,61.00
2018-08-12T07:55:12.372Z,60.90
2018-08-12T07:57:41.530Z,61.00
2018-08-12T08:00:12.293Z,61.10
2018-08-12T08:02:41.600Z,61.10
2018-08-12T08:05:10.099Z,61.00
2018-08-12T08:07:39.418Z,60.90
2018-08-12T08:10:10.106Z,60.90
2018-08-12T08:12:39.517Z,60.80
2018-08-12T08:15:10.472Z,60.80
2018-08-12T08:17:39.645Z,60.60
2018-08-12T08:20:09.133Z,60.20
2018-08-12T08:22:37.963Z,60.90
2018-08-12T08:25:07.460Z,60.40
2018-08-12T08:27:36.335Z,60.30
2018-08-12T08:30:07.584Z,60.00
2018-08-12T08:32:36.246Z,59.90
2018-08-12T08:35:04.805Z,60.00
2018-08-12T08:37:33.435Z,60.00
2018-08-12T08:40:02.023Z,60.00
2018-08-12T08:42:30.523Z,60.00
2018-08-12T08:44:59.041Z,60.10
2018-08-12T08:47:27.567Z,60.30
2018-08-12T08:49:56.142Z,60.30
2018-08-12T08:52:24.727Z,60.00
2018-08-12T08:54:53.274Z,59.70
2018-08-12T08:57:21.725Z,59.60
2018-08-12T08:59:50.235Z,59.40
2018-08-12T09:02:19.143Z,59.10
2018-08-12T09:04:47.686Z,59.00
2018-08-12T09:07:16.391Z,58.70
2018-08-12T09:09:44.889Z,58.80
2018-08-12T09:12:13.469Z,58.70
2018-08-12T09:14:42.096Z,58.50
2018-08-12T09:17:10.719Z,58.40
2018-08-12T09:19:39.353Z,58.40
2018-08-12T09:22:08.492Z,58.10
2018-08-12T09:24:37.554Z,58.40
2018-08-12T09:27:07.678Z,58.00
2018-08-12T09:29:36.471Z,57.90
2018-08-12T09:32:05.065Z,57.70
2018-08-12T09:34:33.921Z,57.50
2018-08-12T09:37:02.692Z,57.40
2018-08-12T09:39:31.167Z,57.30
2018-08-12T09:42:00.194Z,57.20
2018-08-12T09:44:28.990Z,57.10
2018-08-12T09:46:57.801Z,57.00
2018-08-12T09:49:26.571Z,56.80
2018-08-12T09:51:55.242Z,56.70
2018-08-12T09:54:23.734Z,56.70
2018-08-12T09:56:52.730Z,56.60
2018-08-12T09:59:21.390Z,56.40
2018-08-12T10:01:51.304Z,56.40
2018-08-12T10:04:19.812Z,56.40
2018-08-12T10:06:48.791Z,56.20
2018-08-12T10:09:17.783Z,56.20
2018-08-12T10:11:46.659Z,56.00
2018-08-12T10:14:16.278Z,55.70
2018-08-12T10:16:45.350Z,55.60
2018-08-12T10:19:13.871Z,55.50
2018-08-12T10:21:42.411Z,55.60
2018-08-12T10:24:10.887Z,55.60
2018-08-12T10:26:39.439Z,55.60
2018-08-12T10:29:08.336Z,55.50
2018-08-12T10:31:36.773Z,55.60
2018-08-12T10:34:05.280Z,55.60
2018-08-12T10:36:33.763Z,55.50
2018-08-12T10:39:02.390Z,55.90
2018-08-12T10:41:30.914Z,55.50
2018-08-12T10:44:00.739Z,55.50
2018-08-12T10:46:29.248Z,55.50
2018-08-12T10:48:57.811Z,55.30
2018-08-12T10:51:26.346Z,55.20
2018-08-12T10:53:55.062Z,55.10
2018-08-12T10:56:23.674Z,55.10
2018-08-12T10:58:52.291Z,54.90
2018-08-12T11:01:20.882Z,54.80
2018-08-12T11:03:49.481Z,54.80
2018-08-12T11:06:18.150Z,54.70
2018-08-12T11:08:46.725Z,54.80
2018-08-12T11:11:15.290Z,54.70
2018-08-12T11:13:43.822Z,54.60
2018-08-12T11:16:12.442Z,54.60
2018-08-12T11:18:41.062Z,54.50
2018-08-12T11:21:15.799Z,54.40
2018-08-12T11:23:44.459Z,54.40
2018-08-12T11:26:13.123Z,54.40
2018-08-12T11:28:41.686Z,54.40
2018-08-12T11:31:10.382Z,54.40
2018-08-12T11:33:39.277Z,54.30
2018-08-12T11:36:08.042Z,54.20
2018-08-12T11:38:36.643Z,54.10
2018-08-12T11:41:05.299Z,54.10
2018-08-12T11:43:34.179Z,54.00
2018-08-12T11:46:02.938Z,54.10
2018-08-12T11:48:33.876Z,54.50
2018-08-12T11:51:02.544Z,54.00
2018-08-12T11:53:32.204Z,53.90
2018-08-12T11:56:00.763Z,53.70
2018-08-12T11:58:29.313Z,53.70
2018-08-12T12:00:57.844Z,53.80
2018-08-12T12:03:26.379Z,53.50
2018-08-12T12:05:54.885Z,53.50
2018-08-12T12:08:23.471Z,53.50
2018-08-12T12:10:52.026Z,53.50
2018-08-12T12:13:20.561Z,53.50
2018-08-12T12:15:49.126Z,53.50
2018-08-12T12:18:17.654Z,53.50
2018-08-12T12:20:46.211Z,53.60
2018-08-12T12:23:14.715Z,53.60
2018-08-12T12:25:43.223Z,53.60
2018-08-12T12:28:11.801Z,53.40
2018-08-12T12:30:40.367Z,53.30
2018-08-12T12:33:09.041Z,53.20
2018-08-12T12:35:37.620Z,53.20
2018-08-12T12:38:06.267Z,53.70
2018-08-12T12:40:34.803Z,52.90
2018-08-12T12:43:03.335Z,52.90
2018-08-12T12:45:31.926Z,52.90
2018-08-12T12:48:00.614Z,52.80
2018-08-12T12:50:29.180Z,52.60
2018-08-12T12:52:57.748Z,52.50
2018-08-12T12:55:26.333Z,52.60
2018-08-12T12:57:54.857Z,52.60
2018-08-12T13:00:23.434Z,52.50
2018-08-12T13:02:52.343Z,52.20
2018-08-12T13:05:21.905Z,52.20
2018-08-12T13:07:51.126Z,52.20
2018-08-12T13:10:20.101Z,52.20
2018-08-12T13:12:48.650Z,52.20
2018-08-12T13:15:17.685Z,52.10
2018-08-12T13:17:46.409Z,52.10
2018-08-12T13:20:16.994Z,52.00
2018-08-12T13:22:46.638Z,52.00
2018-08-12T13:25:16.974Z,52.00
2018-08-12T13:27:45.763Z,52.10
2018-08-12T13:30:15.232Z,51.90
2018-08-12T13:32:45.071Z,52.00
2018-08-12T13:35:13.578Z,52.50
2018-08-12T13:37:42.582Z,51.90
2018-08-12T13:40:13.049Z,51.90
2018-08-12T13:42:42.259Z,51.90
2018-08-12T13:45:11.723Z,51.90
2018-08-12T13:47:41.251Z,51.80
2018-08-12T13:50:12.727Z,51.80
2018-08-12T13:52:41.663Z,51.70
2018-08-12T13:55:10.560Z,51.70
2018-08-12T13:57:39.393Z,51.60
2018-08-12T14:00:13.466Z,51.60
2018-08-12T14:02:42.755Z,51.80
2018-08-12T14:05:12.713Z,51.70
2018-08-12T14:07:41.592Z,51.80
2018-08-12T14:10:11.272Z,51.80
2018-08-12T14:12:40.402Z,51.80
2018-08-12T14:15:11.537Z,51.80
2018-08-12T14:17:40.951Z,51.70
2018-08-12T14:20:10.861Z,51.80
2018-08-12T14:22:39.719Z,51.70
2018-08-12T14:25:08.652Z,51.70
2018-08-12T14:27:37.598Z,51.70
2018-08-12T14:30:08.702Z,51.70
2018-08-12T14:32:37.380Z,51.70
2018-08-12T14:35:06.158Z,51.60
2018-08-12T14:37:35.140Z,51.60
2018-08-12T14:40:03.819Z,51.60
2018-08-12T14:42:32.325Z,51.50
2018-08-12T14:45:00.960Z,51.60
2018-08-12T14:47:29.798Z,51.70
2018-08-12T14:49:59.222Z,51.70
2018-08-12T14:52:27.879Z,51.60
2018-08-12T14:54:56.608Z,51.60
2018-08-12T14:57:25.416Z,51.60
2018-08-12T14:59:54.184Z,51.70
2018-08-12T15:02:22.840Z,51.70
2018-08-12T15:04:51.435Z,51.70
2018-08-12T15:07:20.056Z,51.70
2018-08-12T15:09:48.676Z,51.70
2018-08-12T15:12:17.612Z,51.70
2018-08-12T15:14:46.257Z,52.20
2018-08-12T15:17:14.943Z,51.70
2018-08-12T15:19:43.866Z,51.80
2018-08-12T15:22:12.391Z,51.80
2018-08-12T15:24:41.085Z,52.40
2018-08-12T15:27:09.703Z,51.80
2018-08-12T15:29:38.273Z,52.30
2018-08-12T15:32:06.834Z,51.80
2018-08-12T15:34:37.178Z,51.80
2018-08-12T15:37:05.812Z,51.80
2018-08-12T15:39:34.558Z,51.80
2018-08-12T15:42:03.155Z,51.80
2018-08-12T15:44:32.072Z,51.70
2018-08-12T15:47:00.630Z,51.80
2018-08-12T15:49:29.207Z,51.80
2018-08-12T15:51:57.811Z,51.80
2018-08-12T15:54:26.483Z,51.80
2018-08-12T15:56:55.022Z,51.80
2018-08-12T15:59:23.905Z,51.90
2018-08-12T16:01:52.509Z,51.90
2018-08-12T16:04:21.201Z,51.90
2018-08-12T16:06:50.062Z,51.90
2018-08-12T16:09:18.638Z,52.00
2018-08-12T16:11:47.230Z,52.00
2018-08-12T16:14:15.714Z,52.00
2018-08-12T16:16:44.300Z,52.00
2018-08-12T16:19:12.875Z,52.00
2018-08-12T16:21:41.435Z,51.90
2018-08-12T16:24:09.985Z,51.90
2018-08-12T16:26:38.571Z,51.80
2018-08-12T16:29:07.203Z,51.80
2018-08-12T16:31:35.793Z,51.80
2018-08-12T16:34:04.239Z,51.90
2018-08-12T16:36:34.579Z,51.80
2018-08-12T16:39:03.239Z,51.80
2018-08-12T16:41:31.764Z,51.80
2018-08-12T16:44:00.311Z,51.80
2018-08-12T16:46:28.832Z,52.20
2018-08-12T16:48:57.359Z,51.80
2018-08-12T16:51:26.001Z,51.80
2018-08-12T16:53:54.551Z,51.90
2018-08-12T16:56:23.041Z,52.00
2018-08-12T16:58:51.636Z,52.10
2018-08-12T17:01:20.192Z,52.00
2018-08-12T17:03:48.784Z,52.10
2018-08-12T17:06:17.291Z,52.10
2018-08-12T17:08:45.923Z,52.10
2018-08-12T17:11:14.509Z,52.10
2018-08-12T17:13:43.169Z,52.20
2018-08-12T17:16:11.642Z,52.20
2018-08-12T17:18:40.197Z,52.20
2018-08-12T17:21:08.883Z,52.20
2018-08-12T17:23:37.605Z,52.30
2018-08-12T17:26:06.381Z,52.20
2018-08-12T17:28:35.034Z,52.40
2018-08-12T17:31:03.797Z,52.50
2018-08-12T17:33:32.915Z,52.40
2018-08-12T17:36:01.554Z,52.40
2018-08-12T17:38:30.276Z,52.50
2018-08-12T17:40:58.966Z,52.60
2018-08-12T17:43:27.631Z,52.60
2018-08-12T17:45:56.644Z,52.70
2018-08-12T17:48:25.959Z,52.70
2018-08-12T17:50:54.675Z,52.70
2018-08-12T17:53:23.314Z,52.70
2018-08-12T17:55:52.028Z,52.70
2018-08-12T17:58:20.767Z,52.70
2018-08-12T18:00:49.488Z,52.70
2018-08-12T18:03:18.230Z,52.90
2018-08-12T18:05:47.018Z,52.90
2018-08-12T18:08:15.708Z,52.80
2018-08-12T18:10:44.464Z,52.90
2018-08-12T18:13:13.386Z,52.90
2018-08-12T18:15:42.024Z,52.90
2018-08-12T18:18:10.761Z,53.00
2018-08-12T18:20:39.696Z,53.10
2018-08-12T18:23:08.344Z,53.10
2018-08-12T18:25:36.992Z,53.00
2018-08-12T18:28:05.785Z,53.40
2018-08-12T18:30:34.525Z,53.00
2018-08-12T18:33:03.696Z,53.20
2018-08-12T18:35:32.405Z,53.30
2018-08-12T18:38:01.192Z,53.40
2018-08-12T18:40:29.787Z,53.40
2018-08-12T18:42:58.581Z,53.40
2018-08-12T18:45:27.428Z,53.40
2018-08-12T18:47:56.446Z,53.30
2018-08-12T18:50:24.982Z,53.30
2018-08-12T18:52:53.603Z,53.20
2018-08-12T18:55:22.155Z,53.20
2018-08-12T18:57:50.739Z,53.20
2018-08-12T19:00:19.282Z,53.40
2018-08-12T19:02:47.929Z,53.50
2018-08-12T19:05:16.488Z,53.50
2018-08-12T19:07:45.042Z,53.60
2018-08-12T19:10:13.515Z,53.60
2018-08-12T19:12:43.131Z,53.60
2018-08-12T19:15:12.473Z,53.60
2018-08-12T19:17:41.115Z,53.70
2018-08-12T19:20:10.902Z,53.70
2018-08-12T19:22:43.027Z,53.80
2018-08-12T19:25:11.562Z,53.90
2018-08-12T19:27:40.184Z,53.90
2018-08-12T19:30:11.244Z,53.90
2018-08-12T19:32:40.759Z,53.90
2018-08-12T19:35:10.097Z,54.00
2018-08-12T19:37:39.123Z,53.90
2018-08-12T19:40:08.615Z,54.00
2018-08-12T19:42:37.560Z,54.00
2018-08-12T19:45:07.857Z,54.00
2018-08-12T19:47:36.457Z,54.00
2018-08-12T19:50:06.297Z,54.00
2018-08-12T19:52:34.895Z,54.10
2018-08-12T19:55:03.506Z,54.00
2018-08-12T19:57:32.035Z,54.10
2018-08-12T20:00:00.620Z,54.00
2018-08-12T20:02:29.103Z,54.10
2018-08-12T20:04:57.627Z,54.10
2018-08-12T20:07:26.110Z,54.10
2018-08-12T20:09:54.694Z,54.10
2018-08-12T20:12:23.223Z,54.10
2018-08-12T20:14:51.750Z,54.10
2018-08-12T20:17:20.310Z,54.10
2018-08-12T20:19:48.890Z,54.10
2018-08-12T20:22:17.428Z,54.10
2018-08-12T20:24:45.995Z,54.10
2018-08-12T20:27:14.537Z,54.10
2018-08-12T20:29:43.493Z,54.10
2018-08-12T20:32:12.051Z,54.20
2018-08-12T20:34:40.703Z,54.20
2018-08-12T20:37:09.248Z,54.10
2018-08-12T20:39:38.018Z,54.20
2018-08-12T20:42:06.597Z,54.30
2018-08-12T20:44:35.193Z,54.20
2018-08-12T20:47:03.737Z,54.30
2018-08-12T20:49:32.329Z,54.30
2018-08-12T20:52:01.008Z,54.30
2018-08-12T20:54:29.514Z,54.30
2018-08-12T20:56:58.006Z,54.30
2018-08-12T20:59:26.535Z,54.30
2018-08-12T21:01:55.042Z,54.90
2018-08-12T21:04:23.519Z,54.30
2018-08-12T21:06:52.092Z,54.30
2018-08-12T21:09:20.627Z,54.30
2018-08-12T21:11:49.193Z,54.30
2018-08-12T21:14:17.658Z,54.30
2018-08-12T21:16:46.210Z,54.30
2018-08-12T21:19:14.735Z,54.30
2018-08-12T21:21:43.201Z,54.30
2018-08-12T21:24:11.727Z,54.30
2018-08-12T21:26:40.232Z,54.30
2018-08-12T21:29:08.797Z,54.30
2018-08-12T21:31:37.328Z,54.50
2018-08-12T21:34:05.856Z,54.20
2018-08-12T21:36:34.357Z,54.20
2018-08-12T21:39:03.031Z,54.20
2018-08-12T21:41:31.536Z,54.30
2018-08-12T21:44:00.064Z,54.20
2018-08-12T21:46:28.623Z,54.20
2018-08-12T21:48:57.227Z,54.20
2018-08-12T21:51:25.797Z,54.20
2018-08-12T21:53:54.318Z,54.20
2018-08-12T21:56:22.859Z,54.30
2018-08-12T21:58:51.453Z,54.30
2018-08-12T22:01:19.984Z,54.30
2018-08-12T22:03:48.568Z,54.30
2018-08-12T22:06:17.118Z,54.30
2018-08-12T22:08:46.142Z,54.30
2018-08-12T22:11:14.719Z,54.30
2018-08-12T22:13:43.388Z,54.30
2018-08-12T22:16:11.918Z,54.90
2018-08-12T22:18:40.441Z,54.40
2018-08-12T22:21:09.030Z,54.40
2018-08-12T22:23:37.926Z,54.50
2018-08-12T22:26:07.371Z,54.40
2018-08-12T22:28:36.045Z,54.40
2018-08-12T22:31:04.934Z,54.50
2018-08-12T22:33:33.650Z,54.50
2018-08-12T22:36:02.632Z,54.50
2018-08-12T22:38:31.433Z,54.60
2018-08-12T22:40:59.954Z,54.60
2018-08-12T22:43:28.809Z,54.80
2018-08-12T22:45:57.401Z,54.80
2018-08-12T22:48:26.008Z,55.40
2018-08-12T22:50:55.736Z,55.00
2018-08-12T22:53:24.284Z,55.00
2018-08-12T22:55:53.074Z,55.10
2018-08-12T22:58:22.117Z,55.20
2018-08-12T23:00:50.798Z,55.20
2018-08-12T23:03:19.362Z,55.10
2018-08-12T23:05:47.920Z,55.30
2018-08-12T23:08:16.591Z,55.40
2018-08-12T23:10:45.259Z,55.40
2018-08-12T23:13:14.416Z,55.50
2018-08-12T23:16:23.825Z,55.50
2018-08-12T23:18:52.669Z,55.60
2018-08-12T23:21:21.589Z,55.60
2018-08-12T23:23:51.200Z,55.70
2018-08-12T23:26:22.050Z,55.70
2018-08-12T23:28:50.708Z,55.80
2018-08-12T23:31:19.465Z,55.90
2018-08-12T23:33:48.254Z,55.90
2018-08-12T23:36:16.907Z,55.90
2018-08-12T23:38:45.724Z,55.90
2018-08-12T23:41:14.434Z,55.90
2018-08-12T23:43:43.086Z,56.00
2018-08-12T23:46:11.944Z,56.00
2018-08-12T23:48:40.523Z,56.00
2018-08-12T23:51:09.201Z,56.00
2018-08-12T23:53:37.860Z,56.00
2018-08-12T23:56:06.507Z,56.00
2018-08-12T23:58:35.044Z,56.00
